createdAt,value
2018-09-17T00:00:43.827Z,12.82
2018-09-17T00:01:43.829Z,12.76
2018-09-17T00:02:43.821Z,12.70
2018-09-17T00:03:43.819Z,12.80
2018-09-17T00:04:43.819Z,12.75
2018-09-17T00:05:43.815Z,12.72
2018-09-17T00:06:43.814Z,12.76
2018-09-17T00:07:43.810Z,12.72
2018-09-17T00:08:43.808Z,12.75
2018-09-17T00:09:43.805Z,12.73
2018-09-17T00:10:43.803Z,12.65
2018-09-17T00:11:43.801Z,12.61
2018-09-17T00:12:43.801Z,12.65
2018-09-17T00:13:43.796Z,12.64
2018-09-17T00:14:43.793Z,12.61
2018-09-17T00:15:43.794Z,12.62
2018-09-17T00:16:43.788Z,12.65
2018-09-17T00:17:43.786Z,12.65
2018-09-17T00:18:43.784Z,12.65
2018-09-17T00:19:43.779Z,12.61
2018-09-17T00:20:43.779Z,12.68
2018-09-17T00:21:43.776Z,12.68
2018-09-17T00:22:43.774Z,12.64
2018-09-17T00:23:43.770Z,12.61
2018-09-17T00:24:43.768Z,12.62
2018-09-17T00:25:43.767Z,12.61
2018-09-17T00:26:43.764Z,12.61
2018-09-17T00:27:43.760Z,12.61
2018-09-17T00:28:43.761Z,12.58
2018-09-17T00:29:43.756Z,12.54
2018-09-17T00:30:43.754Z,12.53
2018-09-17T00:31:43.750Z,12.58
2018-09-17T00:32:43.748Z,12.57
2018-09-17T00:33:43.746Z,12.54
2018-09-17T00:34:43.744Z,12.55
2018-09-17T00:35:43.740Z,12.54
2018-09-17T00:36:43.739Z,12.53
2018-09-17T00:37:43.736Z,12.36
2018-09-17T00:38:43.733Z,12.42
2018-09-17T00:39:43.732Z,12.47
2018-09-17T00:40:43.729Z,12.42
2018-09-17T00:41:43.730Z,12.42
2018-09-17T00:42:43.724Z,12.42
2018-09-17T00:43:43.719Z,12.40
2018-09-17T00:44:43.718Z,12.42
2018-09-17T00:45:43.715Z,12.42
2018-09-17T00:46:43.713Z,12.39
2018-09-17T00:47:43.709Z,12.45
2018-09-17T00:48:43.707Z,12.50
2018-09-17T00:49:43.709Z,12.49
2018-09-17T00:50:43.702Z,12.58
2018-09-17T00:51:43.699Z,12.53
2018-09-17T00:52:43.697Z,12.57
2018-09-17T00:53:43.695Z,12.53
2018-09-17T00:54:43.691Z,12.58
2018-09-17T00:55:43.689Z,12.62
2018-09-17T00:56:43.686Z,12.57
2018-09-17T00:57:43.699Z,12.57
2018-09-17T00:58:43.681Z,12.49
2018-09-17T00:59:43.679Z,12.42
2018-09-17T01:00:43.676Z,12.36
2018-09-17T01:01:43.674Z,12.43
2018-09-17T01:02:43.671Z,12.37
2018-09-17T01:03:43.667Z,12.31
2018-09-17T01:04:43.665Z,12.36
2018-09-17T01:05:43.662Z,12.28
2018-09-17T01:06:43.659Z,12.32
2018-09-17T01:07:43.657Z,12.31
2018-09-17T01:08:43.654Z,12.35
2018-09-17T01:09:43.651Z,12.27
2018-09-17T01:10:43.647Z,12.31
2018-09-17T01:11:43.646Z,12.25
2018-09-17T01:12:43.643Z,12.27
2018-09-17T01:13:43.639Z,12.27
2018-09-17T01:14:43.637Z,12.22
2018-09-17T01:15:43.635Z,12.12
2018-09-17T01:16:43.632Z,12.18
2018-09-17T01:17:43.630Z,12.13
2018-09-17T01:18:43.625Z,12.13
2018-09-17T01:19:43.624Z,12.15
2018-09-17T01:20:43.619Z,12.17
2018-09-17T01:21:43.618Z,12.13
2018-09-17T01:22:43.615Z,12.24
2018-09-17T01:23:43.613Z,12.13
2018-09-17T01:24:43.611Z,12.20
2018-09-17T01:25:43.606Z,12.21
2018-09-17T01:26:43.607Z,12.10
2018-09-17T01:27:43.600Z,12.15
2018-09-17T01:28:43.599Z,12.15
2018-09-17T01:29:43.595Z,12.15
2018-09-17T01:30:43.591Z,12.10
2018-09-17T01:31:43.588Z,12.02
2018-09-17T01:32:43.591Z,12.00
2018-09-17T01:33:43.584Z,11.99
2018-09-17T01:34:43.581Z,12.02
2018-09-17T01:35:43.578Z,11.87
2018-09-17T01:36:43.575Z,11.84
2018-09-17T01:37:43.574Z,11.91
2018-09-17T01:38:43.568Z,11.86
2018-09-17T01:39:43.567Z,11.95
2018-09-17T01:40:43.563Z,11.86
2018-09-17T01:41:43.560Z,11.94
2018-09-17T01:42:43.557Z,11.86
2018-09-17T01:43:43.554Z,11.86
2018-09-17T01:44:43.552Z,11.83
2018-09-17T01:45:43.549Z,11.81
2018-09-17T01:46:43.545Z,11.86
2018-09-17T01:47:43.543Z,11.80
2018-09-17T01:48:43.542Z,11.81
2018-09-17T01:49:43.537Z,11.81
2018-09-17T01:50:43.533Z,11.83
2018-09-17T01:51:43.533Z,11.84
2018-09-17T01:52:43.533Z,11.81
2018-09-17T01:53:43.526Z,11.86
2018-09-17T01:54:43.522Z,11.78
2018-09-17T01:55:43.520Z,11.86
2018-09-17T01:56:43.517Z,11.84
2018-09-17T01:57:43.514Z,11.80
2018-09-17T01:58:43.511Z,11.83
2018-09-17T01:59:43.509Z,11.84
2018-09-17T02:00:43.506Z,11.72
2018-09-17T02:01:43.503Z,11.75
2018-09-17T02:02:43.498Z,11.68
2018-09-17T02:03:43.496Z,11.69
2018-09-17T02:04:43.492Z,11.68
2018-09-17T02:05:43.490Z,11.65
2018-09-17T02:06:43.486Z,11.65
2018-09-17T02:07:43.484Z,11.69
2018-09-17T02:08:43.481Z,11.66
2018-09-17T02:09:43.540Z,11.70
2018-09-17T02:10:43.479Z,11.63
2018-09-17T02:11:43.471Z,11.65
2018-09-17T02:12:43.469Z,11.77
2018-09-17T02:13:43.474Z,11.69
2018-09-17T02:14:43.463Z,11.65
2018-09-17T02:15:43.459Z,11.70
2018-09-17T02:16:43.457Z,11.66
2018-09-17T02:17:43.456Z,11.73
2018-09-17T02:18:43.450Z,11.70
2018-09-17T02:19:43.447Z,11.69
2018-09-17T02:20:43.443Z,11.66
2018-09-17T02:21:43.441Z,11.68
2018-09-17T02:22:43.437Z,11.66
2018-09-17T02:23:43.434Z,11.63
2018-09-17T02:24:43.432Z,11.63
2018-09-17T02:25:43.429Z,11.57
2018-09-17T02:26:43.426Z,11.59
2018-09-17T02:27:43.422Z,11.50
2018-09-17T02:28:43.419Z,11.52
2018-09-17T02:29:43.416Z,11.60
2018-09-17T02:30:43.411Z,11.62
2018-09-17T02:31:43.408Z,11.54
2018-09-17T02:32:43.409Z,11.57
2018-09-17T02:33:43.402Z,11.60
2018-09-17T02:34:43.399Z,11.59
2018-09-17T02:35:43.399Z,11.54
2018-09-17T02:36:43.394Z,11.57
2018-09-17T02:37:43.391Z,11.48
2018-09-17T02:38:43.386Z,11.48
2018-09-17T02:39:43.382Z,11.47
2018-09-17T02:40:43.380Z,11.47
2018-09-17T02:41:43.383Z,11.47
2018-09-17T02:42:43.374Z,11.48
2018-09-17T02:43:43.372Z,11.47
2018-09-17T02:44:43.366Z,11.48
2018-09-17T02:45:43.363Z,11.37
2018-09-17T02:46:43.359Z,11.43
2018-09-17T02:47:43.357Z,11.33
2018-09-17T02:48:43.354Z,11.52
2018-09-17T02:49:43.350Z,11.43
2018-09-17T02:50:43.350Z,11.48
2018-09-17T02:51:43.344Z,11.44
2018-09-17T02:52:43.344Z,11.47
2018-09-17T02:53:43.409Z,11.44
2018-09-17T02:54:43.333Z,11.45
2018-09-17T02:55:43.331Z,11.50
2018-09-17T02:56:43.328Z,11.51
2018-09-17T02:57:43.325Z,11.44
2018-09-17T02:58:43.320Z,11.48
2018-09-17T02:59:43.318Z,11.47
2018-09-17T03:00:43.314Z,11.51
2018-09-17T03:01:43.319Z,11.50
2018-09-17T03:02:43.307Z,11.47
2018-09-17T03:03:43.307Z,11.54
2018-09-17T03:04:43.301Z,11.47
2018-09-17T03:05:43.297Z,11.47
2018-09-17T03:06:43.299Z,11.48
2018-09-17T03:07:43.291Z,11.40
2018-09-17T03:08:43.288Z,11.43
2018-09-17T03:09:43.283Z,11.33
2018-09-17T03:10:43.280Z,11.37
2018-09-17T03:11:43.280Z,11.33
2018-09-17T03:12:43.275Z,11.35
2018-09-17T03:13:43.271Z,11.37
2018-09-17T03:14:43.269Z,11.37
2018-09-17T03:15:43.262Z,11.41
2018-09-17T03:16:43.260Z,11.33
2018-09-17T03:17:43.257Z,11.41
2018-09-17T03:18:43.254Z,11.43
2018-09-17T03:19:43.250Z,11.32
2018-09-17T03:20:43.246Z,11.33
2018-09-17T03:21:43.244Z,11.37
2018-09-17T03:22:43.240Z,11.44
2018-09-17T03:23:43.236Z,11.47
2018-09-17T03:24:43.232Z,11.43
2018-09-17T03:25:43.229Z,11.37
2018-09-17T03:26:43.225Z,11.35
2018-09-17T03:27:43.223Z,11.32
2018-09-17T03:28:43.219Z,11.48
2018-09-17T03:29:43.215Z,11.37
2018-09-17T03:30:43.211Z,11.40
2018-09-17T03:31:43.208Z,11.36
2018-09-17T03:32:43.208Z,11.33
2018-09-17T03:33:43.202Z,11.29
2018-09-17T03:34:43.198Z,11.29
2018-09-17T03:35:43.195Z,11.26
2018-09-17T03:36:43.192Z,11.32
2018-09-17T03:37:43.188Z,11.30
2018-09-17T03:38:43.185Z,11.22
2018-09-17T03:39:43.181Z,11.17
2018-09-17T03:40:43.177Z,11.12
2018-09-17T03:41:43.173Z,11.15
2018-09-17T03:42:43.170Z,11.12
2018-09-17T03:43:43.174Z,11.17
2018-09-17T03:44:43.164Z,11.14
2018-09-17T03:45:43.161Z,11.15
2018-09-17T03:46:43.348Z,11.14
2018-09-17T03:47:43.152Z,11.15
2018-09-17T03:48:43.152Z,11.12
2018-09-17T03:49:43.147Z,11.15
2018-09-17T03:50:43.142Z,11.22
2018-09-17T03:51:43.138Z,11.25
2018-09-17T03:52:43.136Z,11.19
2018-09-17T03:53:43.132Z,11.15
2018-09-17T03:54:43.130Z,11.18
2018-09-17T03:55:43.124Z,11.08
2018-09-17T03:56:43.120Z,11.14
2018-09-17T03:57:43.120Z,11.10
2018-09-17T03:58:43.115Z,11.12
2018-09-17T03:59:43.110Z,11.02
2018-09-17T04:00:43.108Z,11.08
2018-09-17T04:01:43.104Z,11.04
2018-09-17T04:02:43.099Z,11.07
2018-09-17T04:03:43.096Z,11.07
2018-09-17T04:04:43.093Z,11.08
2018-09-17T04:05:43.091Z,11.14
2018-09-17T04:06:43.124Z,11.02
2018-09-17T04:07:43.082Z,10.99
2018-09-17T04:08:43.105Z,10.96
2018-09-17T04:09:43.075Z,11.02
2018-09-17T04:10:43.071Z,10.94
2018-09-17T04:11:43.078Z,10.96
2018-09-17T04:12:43.064Z,10.94
2018-09-17T04:13:43.062Z,10.96
2018-09-17T04:14:43.057Z,10.94
2018-09-17T04:15:43.053Z,10.94
2018-09-17T04:16:43.050Z,10.96
2018-09-17T04:17:43.048Z,10.96
2018-09-17T04:18:43.043Z,10.99
2018-09-17T04:19:43.039Z,10.96
2018-09-17T04:20:43.037Z,10.90
2018-09-17T04:21:43.033Z,10.92
2018-09-17T04:22:43.029Z,10.79
2018-09-17T04:23:43.025Z,10.93
2018-09-17T04:24:43.021Z,10.92
2018-09-17T04:25:43.020Z,10.87
2018-09-17T04:26:43.019Z,10.81
2018-09-17T04:27:43.011Z,10.89
2018-09-17T04:28:43.007Z,10.87
2018-09-17T04:29:43.004Z,10.96
2018-09-17T04:30:43.000Z,10.96
2018-09-17T04:31:43.091Z,10.89
2018-09-17T04:32:42.992Z,10.96
2018-09-17T04:33:42.992Z,11.04
2018-09-17T04:34:42.984Z,10.99
2018-09-17T04:35:42.980Z,11.07
2018-09-17T04:36:42.978Z,11.08
2018-09-17T04:37:42.974Z,10.96
2018-09-17T04:38:42.969Z,11.00
2018-09-17T04:39:42.974Z,11.02
2018-09-17T04:40:42.963Z,11.02
2018-09-17T04:41:42.959Z,10.96
2018-09-17T04:42:42.955Z,10.94
2018-09-17T04:43:42.952Z,10.93
2018-09-17T04:44:42.948Z,10.93
2018-09-17T04:45:42.945Z,11.02
2018-09-17T04:46:42.939Z,10.99
2018-09-17T04:47:42.937Z,10.97
2018-09-17T04:48:42.934Z,11.02
2018-09-17T04:49:42.930Z,10.93
2018-09-17T04:50:42.925Z,11.08
2018-09-17T04:51:42.921Z,10.94
2018-09-17T04:52:42.918Z,10.94
2018-09-17T04:53:42.915Z,10.97
2018-09-17T04:54:42.911Z,11.02
2018-09-17T04:55:42.906Z,11.11
2018-09-17T04:56:42.902Z,11.07
2018-09-17T04:57:42.899Z,11.11
2018-09-17T04:58:42.894Z,11.02
2018-09-17T04:59:42.894Z,10.97
2018-09-17T05:00:42.888Z,11.05
2018-09-17T05:01:42.886Z,10.97
2018-09-17T05:02:42.880Z,10.96
2018-09-17T05:03:42.876Z,11.08
2018-09-17T05:04:42.874Z,10.97
2018-09-17T05:05:42.871Z,10.97
2018-09-17T05:06:42.865Z,10.99
2018-09-17T05:07:42.863Z,10.94
2018-09-17T05:08:42.857Z,10.94
2018-09-17T05:09:42.855Z,10.99
2018-09-17T05:10:42.850Z,11.00
2018-09-17T05:11:42.846Z,10.94
2018-09-17T05:12:42.842Z,11.05
2018-09-17T05:13:42.840Z,11.00
2018-09-17T05:14:42.834Z,11.08
2018-09-17T05:15:42.830Z,11.08
2018-09-17T05:16:42.827Z,11.08
2018-09-17T05:17:42.824Z,11.00
2018-09-17T05:18:42.820Z,11.04
2018-09-17T05:19:42.816Z,11.04
2018-09-17T05:20:42.861Z,11.05
2018-09-17T05:21:42.809Z,11.10
2018-09-17T05:22:42.804Z,11.07
2018-09-17T05:23:42.801Z,11.17
2018-09-17T05:24:42.798Z,11.11
2018-09-17T05:25:42.795Z,11.15
2018-09-17T05:26:42.835Z,11.17
2018-09-17T05:27:42.787Z,11.11
2018-09-17T05:28:42.782Z,11.11
2018-09-17T05:29:42.779Z,11.11
2018-09-17T05:30:42.776Z,11.15
2018-09-17T05:31:42.771Z,11.12
2018-09-17T05:32:42.767Z,11.12
2018-09-17T05:33:42.765Z,11.14
2018-09-17T05:34:42.761Z,11.17
2018-09-17T05:35:42.756Z,11.14
2018-09-17T05:36:42.754Z,11.07
2018-09-17T05:37:42.749Z,11.15
2018-09-17T05:38:42.744Z,11.15
2018-09-17T05:39:42.741Z,11.17
2018-09-17T05:40:42.741Z,11.15
2018-09-17T05:41:42.736Z,11.17
2018-09-17T05:42:42.730Z,11.22
2018-09-17T05:43:42.727Z,11.23
2018-09-17T05:44:42.723Z,11.30
2018-09-17T05:45:42.723Z,11.30
2018-09-17T05:46:42.716Z,11.35
2018-09-17T05:47:42.712Z,11.33
2018-09-17T05:48:42.711Z,11.45
2018-09-17T05:49:42.706Z,11.37
2018-09-17T05:50:42.703Z,11.50
2018-09-17T05:51:42.698Z,11.47
2018-09-17T05:52:42.696Z,11.57
2018-09-17T05:53:42.749Z,11.50
2018-09-17T05:54:42.687Z,11.51
2018-09-17T05:55:42.685Z,11.51
2018-09-17T05:56:42.684Z,11.59
2018-09-17T05:57:42.679Z,11.54
2018-09-17T05:58:42.674Z,11.66
2018-09-17T05:59:42.735Z,11.62
2018-09-17T06:00:42.667Z,11.63
2018-09-17T06:01:42.665Z,11.68
2018-09-17T06:02:42.661Z,11.62
2018-09-17T06:03:42.657Z,11.66
2018-09-17T06:04:42.652Z,11.63
2018-09-17T06:05:42.727Z,11.62
2018-09-17T06:06:42.646Z,11.62
2018-09-17T06:07:42.642Z,11.65
2018-09-17T06:08:42.640Z,11.68
2018-09-17T06:09:42.680Z,11.69
2018-09-17T06:10:42.632Z,11.68
2018-09-17T06:11:42.632Z,11.68
2018-09-17T06:12:42.626Z,11.77
2018-09-17T06:13:42.623Z,11.84
2018-09-17T06:14:42.691Z,11.69
2018-09-17T06:15:42.616Z,11.81
2018-09-17T06:16:42.613Z,11.81
2018-09-17T06:17:42.610Z,11.83
2018-09-17T06:18:42.604Z,11.80
2018-09-17T06:19:42.602Z,11.94
2018-09-17T06:20:42.599Z,11.91
2018-09-17T06:21:42.597Z,12.00
2018-09-17T06:22:42.593Z,11.94
2018-09-17T06:23:42.590Z,12.02
2018-09-17T06:24:42.585Z,11.94
2018-09-17T06:25:42.584Z,12.03
2018-09-17T06:26:42.631Z,12.10
2018-09-17T06:27:42.576Z,12.27
2018-09-17T06:28:42.630Z,12.28
2018-09-17T06:29:42.571Z,12.29
2018-09-17T06:30:42.568Z,12.39
2018-09-17T06:31:42.564Z,12.46
2018-09-17T06:32:42.562Z,12.60
2018-09-17T06:33:42.558Z,12.62
2018-09-17T06:34:42.554Z,12.75
2018-09-17T06:35:42.552Z,12.78
2018-09-17T06:36:42.551Z,12.78
2018-09-17T06:37:42.551Z,12.78
2018-09-17T06:38:42.542Z,12.73
2018-09-17T06:39:42.538Z,12.82
2018-09-17T06:40:42.536Z,12.86
2018-09-17T06:41:42.538Z,12.94
2018-09-17T06:42:42.529Z,12.98
2018-09-17T06:43:42.527Z,13.05
2018-09-17T06:44:42.525Z,12.94
2018-09-17T06:45:42.522Z,13.04
2018-09-17T06:46:42.519Z,13.04
2018-09-17T06:47:42.516Z,13.12
2018-09-17T06:48:42.513Z,13.11
2018-09-17T06:49:42.510Z,13.19
2018-09-17T06:50:42.508Z,13.11
2018-09-17T06:51:42.505Z,13.16
2018-09-17T06:52:42.503Z,13.19
2018-09-17T06:53:42.517Z,13.20
2018-09-17T06:54:42.497Z,13.30
2018-09-17T06:55:42.496Z,13.31
2018-09-17T06:56:42.491Z,13.47
2018-09-17T06:57:42.490Z,13.60
2018-09-17T06:58:42.486Z,13.63
2018-09-17T06:59:42.483Z,13.71
2018-09-17T07:00:42.480Z,13.81
2018-09-17T07:01:42.479Z,13.90
2018-09-17T07:02:42.478Z,13.95
2018-09-17T07:03:42.475Z,13.87
2018-09-17T07:04:42.468Z,13.93
2018-09-17T07:05:42.469Z,14.08
2018-09-17T07:06:42.467Z,14.30
2018-09-17T07:07:42.509Z,14.53
2018-09-17T07:08:42.461Z,14.77
2018-09-17T07:09:42.458Z,14.92
2018-09-17T07:10:42.456Z,15.03
2018-09-17T07:11:42.455Z,15.15
2018-09-17T07:12:42.454Z,15.21
2018-09-17T07:13:42.449Z,15.39
2018-09-17T07:14:42.447Z,15.42
2018-09-17T07:15:42.446Z,15.42
2018-09-17T07:16:42.443Z,15.40
2018-09-17T07:17:42.441Z,15.36
2018-09-17T07:18:42.438Z,15.46
2018-09-17T07:19:42.436Z,15.49
2018-09-17T07:20:42.435Z,15.57
2018-09-17T07:21:42.434Z,15.61
2018-09-17T07:22:42.433Z,15.70
2018-09-17T07:23:42.428Z,15.73
2018-09-17T07:24:42.427Z,15.80
2018-09-17T07:25:42.425Z,15.86
2018-09-17T07:26:42.427Z,16.00
2018-09-17T07:27:42.421Z,16.12
2018-09-17T07:28:42.420Z,16.20
2018-09-17T07:29:42.419Z,16.36
2018-09-17T07:30:42.415Z,16.46
2018-09-17T07:31:42.414Z,16.57
2018-09-17T07:32:42.415Z,16.56
2018-09-17T07:33:42.412Z,16.58
2018-09-17T07:34:42.408Z,16.64
2018-09-17T07:35:42.408Z,16.71
2018-09-17T07:36:42.406Z,16.83
2018-09-17T07:37:42.405Z,16.97
2018-09-17T07:38:42.403Z,17.11
2018-09-17T07:39:42.403Z,17.20
2018-09-17T07:40:42.400Z,17.34
2018-09-17T07:41:42.397Z,17.36
2018-09-17T07:42:42.417Z,17.54
2018-09-17T07:43:42.396Z,17.60
2018-09-17T07:44:42.396Z,17.67
2018-09-17T07:45:42.397Z,17.82
2018-09-17T07:46:42.393Z,17.85
2018-09-17T07:47:42.394Z,17.76
2018-09-17T07:48:42.392Z,17.83
2018-09-17T07:49:42.392Z,17.87
2018-09-17T07:50:42.389Z,17.85
2018-09-17T07:51:42.389Z,17.87
2018-09-17T07:52:42.451Z,18.04
2018-09-17T07:53:42.397Z,17.92
2018-09-17T07:54:42.387Z,17.89
2018-09-17T07:55:42.386Z,18.04
2018-09-17T07:56:42.387Z,18.16
2018-09-17T07:57:42.389Z,18.19
2018-09-17T07:58:42.384Z,18.26
2018-09-17T07:59:42.385Z,18.37
2018-09-17T08:00:42.389Z,18.41
2018-09-17T08:01:42.388Z,18.40
2018-09-17T08:02:42.385Z,18.41
2018-09-17T08:03:42.385Z,18.47
2018-09-17T08:04:42.385Z,18.53
2018-09-17T08:05:42.472Z,18.50
2018-09-17T08:06:42.386Z,18.62
2018-09-17T08:07:42.386Z,18.58
2018-09-17T08:08:42.386Z,18.68
2018-09-17T08:09:42.385Z,18.70
2018-09-17T08:10:42.385Z,18.58
2018-09-17T08:11:42.387Z,18.60
2018-09-17T08:12:42.386Z,18.59
2018-09-17T08:13:42.388Z,18.81
2018-09-17T08:14:42.389Z,18.89
2018-09-17T08:15:42.389Z,18.89
2018-09-17T08:16:42.388Z,18.83
2018-09-17T08:17:42.391Z,18.88
2018-09-17T08:18:42.390Z,18.86
2018-09-17T08:19:42.397Z,18.88
2018-09-17T08:20:42.392Z,18.78
2018-09-17T08:21:42.393Z,18.74
2018-09-17T08:22:42.395Z,18.80
2018-09-17T08:23:42.396Z,18.90
2018-09-17T08:24:42.397Z,18.92
2018-09-17T08:25:42.397Z,18.98
2018-09-17T08:26:42.398Z,19.08
2018-09-17T08:27:42.402Z,18.98
2018-09-17T08:28:42.406Z,19.02
2018-09-17T08:29:42.404Z,18.99
2018-09-17T08:30:42.402Z,19.11
2018-09-17T08:31:42.407Z,19.14
2018-09-17T08:32:42.405Z,19.21
2018-09-17T08:33:42.407Z,19.26
2018-09-17T08:34:42.412Z,19.30
2018-09-17T08:35:42.409Z,19.27
2018-09-17T08:36:42.411Z,19.45
2018-09-17T08:37:42.417Z,19.54
2018-09-17T08:38:42.415Z,19.64
2018-09-17T08:39:42.415Z,19.71
2018-09-17T08:40:42.416Z,19.76
2018-09-17T08:41:42.419Z,19.77
2018-09-17T08:42:42.419Z,19.88
2018-09-17T08:43:42.422Z,20.00
2018-09-17T08:44:42.422Z,20.04
2018-09-17T08:45:42.448Z,20.06
2018-09-17T08:46:42.427Z,20.25
2018-09-17T08:47:42.428Z,20.41
2018-09-17T08:48:42.430Z,20.69
2018-09-17T08:49:42.432Z,21.20
2018-09-17T08:50:42.433Z,21.69
2018-09-17T08:51:42.440Z,22.17
2018-09-17T08:52:42.477Z,22.43
2018-09-17T08:53:42.443Z,22.78
2018-09-17T08:54:42.445Z,22.93
2018-09-17T08:55:42.450Z,23.31
2018-09-17T08:56:42.454Z,23.36
2018-09-17T08:57:42.460Z,23.39
2018-09-17T08:58:42.463Z,23.25
2018-09-17T08:59:42.469Z,22.98
2018-09-17T09:00:42.474Z,22.96
2018-09-17T09:01:42.481Z,22.83
2018-09-17T09:02:42.487Z,22.75
2018-09-17T09:03:42.491Z,22.54
2018-09-17T09:04:42.498Z,22.62
2018-09-17T09:05:42.505Z,22.69
2018-09-17T09:06:42.510Z,22.69
2018-09-17T09:07:42.518Z,22.51
2018-09-17T09:08:42.524Z,22.70
2018-09-17T09:09:42.532Z,23.18
2018-09-17T09:10:42.539Z,23.71
2018-09-17T09:11:42.545Z,23.99
2018-09-17T09:12:42.551Z,24.18
2018-09-17T09:13:42.561Z,24.39
2018-09-17T09:14:42.566Z,23.96
2018-09-17T09:15:42.574Z,23.95
2018-09-17T09:16:42.583Z,24.40
2018-09-17T09:17:42.591Z,24.40
2018-09-17T09:18:42.597Z,24.66
2018-09-17T09:19:42.663Z,24.60
2018-09-17T09:20:42.613Z,24.39
2018-09-17T09:21:42.622Z,24.60
2018-09-17T09:22:42.635Z,24.70
2018-09-17T09:23:42.640Z,24.45
2018-09-17T09:24:42.650Z,24.24
2018-09-17T09:25:42.659Z,24.55
2018-09-17T09:26:42.668Z,24.54
2018-09-17T09:27:42.677Z,24.50
2018-09-17T09:28:42.687Z,24.40
2018-09-17T09:29:42.696Z,23.98
2018-09-17T09:30:42.728Z,24.43
2018-09-17T09:31:42.715Z,25.08
2018-09-17T09:32:42.725Z,25.29
2018-09-17T09:33:42.734Z,25.13
2018-09-17T09:34:42.742Z,25.38
2018-09-17T09:35:42.754Z,25.93
2018-09-17T09:36:42.762Z,26.15
2018-09-17T09:37:42.786Z,25.78
2018-09-17T09:38:42.783Z,25.32
2018-09-17T09:39:42.800Z,25.04
2018-09-17T09:40:42.804Z,24.86
2018-09-17T09:41:42.814Z,24.47
2018-09-17T09:42:42.824Z,24.38
2018-09-17T09:43:42.837Z,24.45
2018-09-17T09:44:42.846Z,24.93
2018-09-17T09:45:42.857Z,24.93
2018-09-17T09:46:42.868Z,25.10
2018-09-17T09:47:42.878Z,25.46
2018-09-17T09:48:42.889Z,25.63
2018-09-17T09:49:42.899Z,25.17
2018-09-17T09:50:42.910Z,24.91
2018-09-17T09:51:42.919Z,25.11
2018-09-17T09:52:43.002Z,24.85
2018-09-17T09:53:42.944Z,24.81
2018-09-17T09:54:42.952Z,25.13
2018-09-17T09:55:42.963Z,25.38
2018-09-17T09:56:42.974Z,25.69
2018-09-17T09:57:42.985Z,25.84
2018-09-17T09:58:42.996Z,25.85
2018-09-17T09:59:43.056Z,25.95
2018-09-17T10:00:43.016Z,26.23
2018-09-17T10:01:43.026Z,26.55
2018-09-17T10:02:43.036Z,26.62
2018-09-17T10:03:43.047Z,26.52
2018-09-17T10:04:43.062Z,26.51
2018-09-17T10:05:43.070Z,26.73
2018-09-17T10:06:43.080Z,26.33
2018-09-17T10:07:43.091Z,26.53
2018-09-17T10:08:43.101Z,25.93
2018-09-17T10:09:43.113Z,26.21
2018-09-17T10:10:43.129Z,26.09
2018-09-17T10:11:43.155Z,26.29
2018-09-17T10:12:43.146Z,26.71
2018-09-17T10:13:43.157Z,27.03
2018-09-17T10:14:43.167Z,27.15
2018-09-17T10:15:43.180Z,27.17
2018-09-17T10:16:43.191Z,26.99
2018-09-17T10:17:43.203Z,27.32
2018-09-17T10:18:43.216Z,27.44
2018-09-17T10:19:43.227Z,27.82
2018-09-17T10:20:43.238Z,27.29
2018-09-17T10:21:43.252Z,26.70
2018-09-17T10:22:43.261Z,26.80
2018-09-17T10:23:43.273Z,27.39
2018-09-17T10:24:43.285Z,27.35
2018-09-17T10:25:43.297Z,27.45
2018-09-17T10:26:43.309Z,27.33
2018-09-17T10:27:43.321Z,26.89
2018-09-17T10:28:43.333Z,27.17
2018-09-17T10:29:43.367Z,27.12
2018-09-17T10:30:43.358Z,26.68
2018-09-17T10:31:43.370Z,26.74
2018-09-17T10:32:43.382Z,27.26
2018-09-17T10:33:43.395Z,27.22
2018-09-17T10:34:43.405Z,27.42
2018-09-17T10:35:43.418Z,26.90
2018-09-17T10:36:43.432Z,26.40
2018-09-17T10:37:43.446Z,26.33
2018-09-17T10:38:43.454Z,26.07
2018-09-17T10:39:43.468Z,26.13
2018-09-17T10:40:43.479Z,26.23
2018-09-17T10:41:43.493Z,25.85
2018-09-17T10:42:43.501Z,25.28
2018-09-17T10:43:43.516Z,25.14
2018-09-17T10:44:43.524Z,25.13
2018-09-17T10:45:43.536Z,25.01
2018-09-17T10:46:43.545Z,24.73
2018-09-17T10:47:43.556Z,24.69
2018-09-17T10:48:43.567Z,24.76
2018-09-17T10:49:43.576Z,24.76
2018-09-17T10:50:43.589Z,24.57
2018-09-17T10:51:43.596Z,24.61
2018-09-17T10:52:43.606Z,24.45
2018-09-17T10:53:43.617Z,24.35
2018-09-17T10:54:43.626Z,24.33
2018-09-17T10:55:43.636Z,24.06
2018-09-17T10:56:43.644Z,24.02
2018-09-17T10:57:43.653Z,24.28
2018-09-17T10:58:43.663Z,24.58
2018-09-17T10:59:43.670Z,24.35
2018-09-17T11:00:43.680Z,24.29
2018-09-17T11:01:43.689Z,24.28
2018-09-17T11:02:43.695Z,24.28
2018-09-17T11:03:43.705Z,24.42
2018-09-17T11:04:43.713Z,24.53
2018-09-17T11:05:43.723Z,24.51
2018-09-17T11:06:43.728Z,24.43
2018-09-17T11:07:43.738Z,24.50
2018-09-17T11:08:43.743Z,24.65
2018-09-17T11:09:43.752Z,24.58
2018-09-17T11:10:43.759Z,24.58
2018-09-17T11:11:43.768Z,24.53
2018-09-17T11:12:43.775Z,24.63
2018-09-17T11:13:43.783Z,24.55
2018-09-17T11:14:43.788Z,24.57
2018-09-17T11:15:43.796Z,24.66
2018-09-17T11:16:43.803Z,24.66
2018-09-17T11:17:43.814Z,24.70
2018-09-17T11:18:43.821Z,24.63
2018-09-17T11:19:43.824Z,24.66
2018-09-17T11:20:43.831Z,24.61
2018-09-17T11:21:43.839Z,24.48
2018-09-17T11:22:43.845Z,24.43
2018-09-17T11:23:43.853Z,24.40
2018-09-17T11:24:43.859Z,24.40
2018-09-17T11:25:43.866Z,24.42
2018-09-17T11:26:43.872Z,24.32
2018-09-17T11:27:43.879Z,24.29
2018-09-17T11:28:43.886Z,24.35
2018-09-17T11:29:43.896Z,24.38
2018-09-17T11:30:43.900Z,24.43
2018-09-17T11:31:43.906Z,24.43
2018-09-17T11:32:43.912Z,24.40
2018-09-17T11:33:43.920Z,24.43
2018-09-17T11:34:43.924Z,24.36
2018-09-17T11:35:43.930Z,24.48
2018-09-17T11:36:43.938Z,24.60
2018-09-17T11:37:43.944Z,24.61
2018-09-17T11:38:43.950Z,24.69
2018-09-17T11:39:43.957Z,24.86
2018-09-17T11:40:43.963Z,24.86
2018-09-17T11:41:43.970Z,24.96
2018-09-17T11:42:43.975Z,25.01
2018-09-17T11:43:43.980Z,24.86
2018-09-17T11:44:43.991Z,24.88
2018-09-17T11:45:43.994Z,24.96
2018-09-17T11:46:44.000Z,24.88
2018-09-17T11:47:44.005Z,24.92
2018-09-17T11:48:44.012Z,24.89
2018-09-17T11:49:44.019Z,24.85
2018-09-17T11:50:44.025Z,24.99
2018-09-17T11:51:44.030Z,24.93
2018-09-17T11:52:44.038Z,25.01
2018-09-17T11:53:44.044Z,24.88
2018-09-17T11:54:44.048Z,24.91
2018-09-17T11:55:44.058Z,24.88
2018-09-17T11:56:44.063Z,24.98
2018-09-17T11:57:44.068Z,25.06
2018-09-17T11:58:44.073Z,25.13
2018-09-17T11:59:44.082Z,25.14
2018-09-17T12:00:44.086Z,25.16
2018-09-17T12:01:44.146Z,25.32
2018-09-17T12:02:44.098Z,25.46
2018-09-17T12:03:44.103Z,25.36
2018-09-17T12:04:44.111Z,25.48
2018-09-17T12:05:44.117Z,25.50
2018-09-17T12:06:44.121Z,25.40
2018-09-17T12:07:44.128Z,25.48
2018-09-17T12:08:44.133Z,25.58
2018-09-17T12:09:44.139Z,25.55
2018-09-17T12:10:44.145Z,25.43
2018-09-17T12:11:44.151Z,25.28
2018-09-17T12:12:44.158Z,25.16
2018-09-17T12:13:44.164Z,24.85
2018-09-17T12:14:44.170Z,24.93
2018-09-17T12:15:44.175Z,24.99
2018-09-17T12:16:44.181Z,24.93
2018-09-17T12:17:44.188Z,25.17
2018-09-17T12:18:44.194Z,25.21
2018-09-17T12:19:44.199Z,25.10
2018-09-17T12:20:44.207Z,25.11
2018-09-17T12:21:44.212Z,25.16
2018-09-17T12:22:44.218Z,25.18
2018-09-17T12:23:44.224Z,25.18
2018-09-17T12:24:44.229Z,25.10
2018-09-17T12:25:44.235Z,24.98
2018-09-17T12:26:44.241Z,25.07
2018-09-17T12:27:44.247Z,25.13
2018-09-17T12:28:44.253Z,24.99
2018-09-17T12:29:44.262Z,24.84
2018-09-17T12:30:44.263Z,24.96
2018-09-17T12:31:44.270Z,25.07
2018-09-17T12:32:44.277Z,25.10
2018-09-17T12:33:44.309Z,24.96
2018-09-17T12:34:44.288Z,25.07
2018-09-17T12:35:44.293Z,25.21
2018-09-17T12:36:44.299Z,25.14
2018-09-17T12:37:44.306Z,25.32
2018-09-17T12:38:44.308Z,25.47
2018-09-17T12:39:44.317Z,25.41
2018-09-17T12:40:44.322Z,25.43
2018-09-17T12:41:44.328Z,25.25
2018-09-17T12:42:44.332Z,25.26
2018-09-17T12:43:44.339Z,25.38
2018-09-17T12:44:44.347Z,25.46
2018-09-17T12:45:44.362Z,25.50
2018-09-17T12:46:44.356Z,25.60
2018-09-17T12:47:44.360Z,25.55
2018-09-17T12:48:44.367Z,25.53
2018-09-17T12:49:44.372Z,25.66
2018-09-17T12:50:44.448Z,25.75
2018-09-17T12:51:44.391Z,25.69
2018-09-17T12:52:44.388Z,25.85